OINN  Noshahr  Airport

Iran

Add Bookmark
ICAO OINN
IATA NSH
Type Airport
Status Operational
Latitude
36° 39' 47" N
36.663300
Longitude
51° 27' 52" E
51.464699
Local (DST + 5) UTC (GMT + 4)
Jul 5, 2015 09:59 Jul 5, 2015 17:29
Sunrise-Sunset Local UTC
Begin Civil Twilight 05:19 00:49
Sunrise 05:49 01:19
Sunset 08:27 15:57
End Civil Twilight 08:58 16:28
VFR
VFR
MVFR
MVFR
IFR
IFR
LIFR
LIFR
Unknown
Unavailable

Current Weather

METAR Observed VFR
OINN 051700Z 00000KT 9999 FEW025 SCT090 27/20 Q1011 Sun, Jul 5, 2015 @ 17:00 UTC
(29 Minutes ago)
Visual Flight Rules
Wind Visibility Clouds Conditions
Calm 10 km or more
  • Few at 2,500 ft AGL
  • Scattered at 9,000 ft AGL
  • No significant weather
Temperatures Readings Precipitation
Current Temp
27°C
81°F
Dewpoint
20°C
68°F
Heat Index
29°C
84°
Humidity 66%
Altimeter 29.85" Hg
Sea Level Pressure 1,011 mb
None Recorded

Additional weather within a 92.6km radius of OINN

Map ICAO Location
OINR 75km W/NW (292°)
VFR
VFR
MVFR
MVFR
IFR
IFR
LIFR
LIFR
Unknown
Unavailable
-
-

CheckWX.com is intended as a tool to help pilots better visualize weather data. It is not intended as a substitute for an official weather briefing obtained from a Flight Service Station. CheckWX.com does not meet the FAA requirements for an official pre-flight weather briefing. Therefore, it's important that pilots still call and obtain an official FSS pre-flight weather briefing.

© 2007-2015 CheckWX.com
17:29:08 UTC